Thunder radar more information blitzortung!


Rain radar more information rain snow radar


Besuchen Sie unsere anderen Wetter Stationen:

Template documentation
and downloads

And another site


Sie finden unser Wetter-Infos auch auf:

warn

European Weather Network

WeatherCloud

Weather Underground

AWEKAS

HAMweather, WeatherForYou, PWS Weather

wettercom

Neuwetter

Wetter Netzwerk Deutschland



METAR-Meldungen aus der Umgebung

   
EDDW - Bremen
Aktualisierung: 15-11-2018 05:20
Nebel, Teilweise bewölkt  
Nebel, Teilweise bewölkt  
   Wind: SSO 5.6 km/h
Wind: SSO 5.6 km/h
Temperatur: 4°C
Gefühlt: 3°C
Taupunkt: 4°C
Luftfeuchte: 100%
Luftdruck: 1027 hPa
Bewölkt: Teilweise bewölkt
Sichtbarkeit: 4.5 km
Bewölkung: Teilweise bewölkt
EDDW 150420Z 15003KT 120V180 4500 R09/0800VP2000D BR NSC 04/04 Q1027 NOSIG
EDDT - Berlin
Aktualisierung: 15-11-2018 05:20
Klar  
Klar  
   Wind: ONO 3.7 km/h
Wind: ONO 3.7 km/h
Temperatur: 7°C
Taupunkt: 6°C
Luftfeuchte: 93%
Luftdruck: 1029 hPa
Sichtbarkeit: More than 10 km
Bewölkung: Klar
EDDT 150420Z 06002KT CAVOK 07/06 Q1029 NOSIG
EDDF - Frankfurt
Aktualisierung: 15-11-2018 05:20
Bewölkt  
Bewölkt  
   Wind: Osten 9.3 km/h
Wind: Osten 9.3 km/h
Temperatur: 6°C
Gefühlt: 4°C
Taupunkt: 5°C
Luftfeuchte: 93%
Luftdruck: 1028 hPa
Bewölkt: Bewölkt
Sichtbarkeit: 9 km
Bewölkung: Bewölkt 600 ft
EDDF 150420Z 10005KT 060V150 9000 OVC006 06/05 Q1028 NOSIG
EDDM - Mnchen
Aktualisierung: 15-11-2018 05:20
Nebel, Bewölkt  
Nebel, Bewölkt  
   Wind: Osten 9.3 km/h
Wind: Osten 9.3 km/h
Temperatur: 4°C
Gefühlt: 2°C
Taupunkt: 4°C
Luftfeuchte: 100%
Luftdruck: 1027 hPa
Bewölkt: Bewölkt
Sichtbarkeit: 4 km
Bewölkung: Teilweise bewölkt 100 ft,
Bewölkt 200 ft
EDDM 150420Z 08005KT 4000 BR SCT001 OVC002 04/04 Q1027 TEMPO 2500 OVC001
EDDH - Hamburg
Aktualisierung: 15-11-2018 05:20
Patches of, Nebel, Teilweise bewölkt  
Patches of, Nebel, Teilweise bewölkt  
   Wind: SO 7.4 km/h
Wind: SO 7.4 km/h
Temperatur: 5°C
Gefühlt: 3°C
Taupunkt: 4°C
Luftfeuchte: 93%
Luftdruck: 1027 hPa
Bewölkt: Teilweise bewölkt
Sichtbarkeit: More than 10 km
Bewölkung: Teilweise bewölkt
EDDH 150420Z 13004KT 9999 2400NW R15/0800V1600U BCFG NSC 05/04 Q1027 NOSIG
EDDL - Dsseldorf
Aktualisierung: 15-11-2018 05:20
Klar  
Klar  
   Wind: SSO 20.4 km/h
Wind: SSO 20.4 km/h
Temperatur: 6°C
Gefühlt: 2°C
Taupunkt: 4°C
Luftfeuchte: 87%
Luftdruck: 1025 hPa
Sichtbarkeit: More than 10 km
Bewölkung: Klar
EDDL 150420Z 15011KT CAVOK 06/04 Q1025 NOSIG

Script entwickelt von  Saratoga-weather.org Angepasst für das Template von  Weerstation Leuven

Von uns verwendete Ausrüstung:

Wetterstation
Davis VP2

Wetterprogramm
Meteobridge

WetterComputer
Asus WL -330N3G

Davis VP2

Meteobridge

Asus WL -330N3G